createdAt,value
2018-08-09T00:03:37.536Z,7.80
2018-08-09T00:07:40.144Z,6.13
2018-08-09T00:11:42.745Z,6.83
2018-08-09T00:15:45.389Z,6.80
2018-08-09T00:19:48.003Z,8.00
2018-08-09T00:23:50.605Z,7.00
2018-08-09T00:27:53.243Z,8.50
2018-08-09T00:31:55.913Z,8.50
2018-08-09T00:35:58.429Z,7.60
2018-08-09T00:40:01.001Z,7.00
2018-08-09T00:44:03.582Z,7.43
2018-08-09T00:48:06.249Z,8.43
2018-08-09T00:52:08.866Z,7.77
2018-08-09T00:56:11.513Z,8.40
2018-08-09T01:00:14.150Z,7.77
2018-08-09T01:04:16.731Z,7.53
2018-08-09T01:08:19.308Z,10.17
2018-08-09T01:12:22.168Z,10.70
2018-08-09T01:16:24.731Z,9.50
2018-08-09T01:20:27.309Z,9.80
2018-08-09T01:24:29.983Z,9.90
2018-08-09T01:28:32.577Z,10.13
2018-08-09T01:32:35.159Z,8.50
2018-08-09T01:36:38.349Z,9.07
2018-08-09T01:40:40.965Z,9.93
2018-08-09T01:44:43.582Z,10.60
2018-08-09T01:48:46.142Z,11.67
2018-08-09T01:52:48.762Z,11.70
2018-08-09T01:56:51.397Z,10.07
2018-08-09T02:00:53.989Z,10.67
2018-08-09T02:04:56.898Z,10.47
2018-08-09T02:09:05.247Z,10.30
2018-08-09T02:13:07.898Z,11.17
2018-08-09T02:17:10.516Z,11.93
2018-08-09T02:21:13.107Z,10.57
2018-08-09T02:25:15.819Z,10.10
2018-08-09T02:29:18.475Z,10.90
2018-08-09T02:33:21.106Z,12.17
2018-08-09T02:37:23.789Z,9.87
2018-08-09T02:41:26.379Z,9.10
2018-08-09T02:45:28.940Z,9.17
2018-08-09T02:49:31.622Z,9.53
2018-08-09T02:53:34.323Z,11.30
2018-08-09T02:57:36.972Z,12.43
2018-08-09T03:01:39.561Z,13.13
2018-08-09T03:05:42.263Z,13.50
2018-08-09T03:09:44.900Z,12.20
2018-08-09T03:13:47.625Z,15.83
2018-08-09T03:17:50.284Z,17.03
2018-08-09T03:21:52.928Z,12.67
2018-08-09T03:25:55.511Z,13.13
2018-08-09T03:29:58.095Z,15.20
2018-08-09T03:34:00.646Z,13.70
2018-08-09T03:38:03.266Z,13.53
2018-08-09T03:42:05.830Z,17.13
2018-08-09T03:46:08.435Z,17.03
2018-08-09T03:50:10.978Z,12.63
2018-08-09T03:54:13.655Z,13.13
2018-08-09T03:58:16.362Z,14.47
2018-08-09T04:02:19.029Z,13.90
2018-08-09T04:06:21.658Z,16.90
2018-08-09T04:10:24.270Z,15.73
2018-08-09T04:14:26.897Z,14.70
2018-08-09T04:18:29.499Z,14.80
2018-08-09T04:22:32.161Z,15.63
2018-08-09T04:26:34.947Z,16.80
2018-08-09T04:30:37.572Z,15.70
2018-08-09T04:34:40.184Z,15.27
2018-08-09T04:38:42.870Z,14.00
2018-08-09T04:42:45.564Z,15.90
2018-08-09T04:46:48.215Z,11.67
2018-08-09T04:50:50.882Z,15.97
2018-08-09T04:54:53.458Z,17.50
2018-08-09T04:58:56.058Z,17.33
2018-08-09T05:02:58.605Z,15.83
2018-08-09T05:07:01.300Z,20.55
2018-08-09T05:11:04.087Z,16.32
2018-08-09T05:15:06.746Z,16.67
2018-08-09T05:19:09.381Z,20.17
2018-08-09T05:23:11.951Z,16.93
2018-08-09T05:27:14.585Z,15.70
2018-08-09T05:31:17.378Z,16.20
2018-08-09T05:35:20.138Z,19.37
2018-08-09T05:39:22.840Z,12.47
2018-08-09T05:43:25.422Z,16.97
2018-08-09T05:47:27.962Z,15.93
2018-08-09T05:51:30.575Z,12.10
2018-08-09T05:55:33.188Z,13.80
2018-08-09T05:59:35.826Z,21.10
2018-08-09T06:03:38.472Z,20.07
2018-08-09T06:07:41.093Z,20.60
2018-08-09T06:11:43.709Z,14.83
2018-08-09T06:15:46.294Z,12.63
2018-08-09T06:19:48.880Z,18.33
2018-08-09T06:23:51.457Z,13.37
2018-08-09T06:27:54.157Z,10.47
2018-08-09T06:31:56.786Z,10.03
2018-08-09T06:35:59.404Z,14.00
2018-08-09T06:40:02.171Z,14.60
2018-08-09T06:44:04.791Z,16.97
2018-08-09T06:48:07.415Z,16.33
2018-08-09T06:52:10.105Z,21.07
2018-08-09T06:56:12.982Z,14.27
2018-08-09T07:00:15.613Z,14.60
2018-08-09T07:04:18.172Z,19.30
2018-08-09T07:08:22.940Z,14.17
2018-08-09T07:12:25.677Z,13.77
2018-08-09T07:16:28.575Z,16.33
2018-08-09T07:20:31.191Z,16.37
2018-08-09T07:24:33.876Z,14.43
2018-08-09T07:28:36.570Z,15.43
2018-08-09T07:32:39.428Z,18.10
2018-08-09T07:36:42.286Z,16.87
2018-08-09T07:40:45.048Z,14.77
2018-08-09T07:44:47.762Z,17.63
2018-08-09T07:48:50.597Z,15.77
2018-08-09T07:52:53.245Z,15.13
2018-08-09T07:56:56.078Z,17.63
2018-08-09T08:00:59.003Z,14.17
2018-08-09T08:05:01.625Z,13.87
2018-08-09T08:09:07.973Z,9.00
2018-08-09T08:13:10.570Z,10.70
2018-08-09T08:17:13.187Z,11.33
2018-08-09T08:21:15.786Z,10.13
2018-08-09T08:25:18.455Z,10.33
2018-08-09T08:29:21.050Z,13.07
2018-08-09T08:33:23.731Z,13.57
2018-08-09T08:37:26.341Z,13.93
2018-08-09T08:41:30.754Z,14.23
2018-08-09T08:45:33.619Z,18.17
2018-08-09T08:49:36.254Z,17.40
2018-08-09T08:53:38.945Z,18.33
2018-08-09T08:57:41.672Z,17.50
2018-08-09T09:01:44.456Z,15.37
2018-08-09T09:05:47.137Z,14.20
2018-08-09T09:09:49.709Z,17.30
2018-08-09T09:13:52.474Z,14.43
2018-08-09T09:17:55.120Z,15.40
2018-08-09T09:21:57.766Z,15.20
2018-08-09T09:26:00.445Z,15.77
2018-08-09T09:30:03.342Z,18.03
2018-08-09T09:34:05.996Z,19.90
2018-08-09T09:38:08.557Z,18.80
2018-08-09T09:42:11.124Z,19.27
2018-08-09T10:10:01.234Z,19.25
2018-08-09T10:14:03.878Z,19.57
2018-08-09T10:18:06.559Z,18.37
2018-08-09T10:30:36.796Z,17.97
2018-08-09T10:35:31.240Z,16.47
2018-08-09T10:43:31.126Z,12.83
2018-08-09T10:47:33.756Z,10.43
2018-08-09T10:51:36.365Z,9.90
2018-08-09T10:55:39.047Z,15.28
2018-08-09T10:59:42.891Z,12.63
2018-08-09T11:03:45.532Z,11.90
2018-08-09T11:07:48.192Z,11.27
2018-08-09T11:11:50.828Z,10.93
2018-08-09T11:15:53.631Z,11.10
2018-08-09T11:19:56.154Z,10.50
2018-08-09T11:23:58.704Z,10.40
2018-08-09T11:28:01.270Z,12.70
2018-08-09T11:35:17.575Z,10.50
2018-08-09T11:47:10.698Z,10.70
2018-08-09T11:51:13.947Z,10.50
2018-08-09T12:02:35.880Z,10.70
2018-08-09T12:10:36.633Z,12.37
2018-08-09T12:14:39.321Z,11.97
2018-08-09T12:18:41.908Z,13.40
2018-08-09T12:23:48.194Z,13.33
2018-08-09T12:28:34.636Z,11.53
2018-08-09T12:37:52.450Z,12.60
2018-08-09T12:46:52.307Z,15.77
2018-08-09T12:58:25.327Z,15.27
2018-08-09T13:02:28.049Z,14.77
2018-08-09T13:06:30.821Z,15.53
2018-08-09T13:10:33.351Z,15.50
2018-08-09T13:14:35.910Z,14.07
2018-08-09T13:21:22.302Z,14.13
2018-08-09T13:25:25.832Z,13.33
2018-08-09T13:29:28.509Z,12.53
2018-08-09T13:33:31.142Z,13.83
2018-08-09T13:37:33.750Z,13.17
2018-08-09T13:41:36.479Z,13.83
2018-08-09T13:45:39.077Z,12.77
2018-08-09T13:49:42.518Z,12.60
2018-08-09T13:53:45.115Z,14.47
2018-08-09T13:57:47.790Z,13.17
2018-08-09T14:01:50.394Z,13.60
2018-08-09T14:05:53.391Z,13.63
2018-08-09T14:09:56.103Z,14.40
2018-08-09T14:13:59.532Z,14.67
2018-08-09T14:18:02.393Z,15.73
2018-08-09T14:22:05.270Z,15.67
2018-08-09T14:26:11.409Z,14.07
2018-08-09T14:33:49.829Z,16.67
2018-08-09T14:37:52.505Z,17.23
2018-08-09T14:41:55.105Z,17.43
2018-08-09T14:45:57.843Z,19.37
2018-08-09T14:50:00.694Z,19.87
2018-08-09T14:54:03.493Z,15.43
2018-08-09T14:58:06.088Z,12.23
2018-08-09T15:02:08.830Z,9.60
2018-08-09T15:06:11.426Z,9.40
2018-08-09T15:10:15.226Z,11.13
2018-08-09T15:14:17.938Z,6.80
2018-08-09T15:18:20.553Z,7.67
2018-08-09T15:22:23.106Z,6.90
2018-08-09T15:26:25.654Z,6.67
2018-08-09T15:30:28.283Z,5.13
2018-08-09T15:34:31.044Z,5.37
2018-08-09T15:38:33.735Z,5.37
2018-08-09T15:42:36.802Z,5.40
2018-08-09T15:46:39.446Z,5.33
2018-08-09T15:50:42.036Z,5.00
2018-08-09T15:54:44.570Z,4.80
2018-08-09T15:58:47.203Z,4.60
2018-08-09T16:02:49.938Z,5.27
2018-08-09T16:06:52.547Z,4.77
2018-08-09T16:10:55.457Z,5.60
2018-08-09T16:14:58.660Z,5.40
2018-08-09T16:19:01.564Z,4.90
2018-08-09T16:23:04.925Z,4.80
2018-08-09T16:28:55.137Z,5.40
2018-08-09T16:40:30.064Z,4.63
2018-08-09T16:44:39.626Z,5.00
2018-08-09T16:54:22.580Z,4.90
2018-08-09T16:59:10.793Z,4.97
2018-08-09T17:03:13.410Z,4.97
2018-08-09T17:26:02.855Z,5.20
2018-08-09T17:30:07.063Z,4.60
2018-08-09T18:02:05.643Z,3.40
2018-08-09T18:20:52.961Z,3.40
2018-08-09T18:24:55.613Z,3.30
2018-08-09T18:32:45.983Z,3.50
2018-08-09T18:36:49.065Z,3.80
2018-08-09T18:40:51.740Z,3.23
2018-08-09T18:44:54.324Z,3.93
2018-08-09T18:48:56.947Z,3.90
2018-08-09T18:53:00.797Z,3.53
2018-08-09T18:57:05.132Z,3.73
2018-08-09T19:01:08.535Z,2.90
2018-08-09T19:05:11.323Z,3.03
2018-08-09T19:09:14.104Z,3.97
2018-08-09T19:13:16.775Z,2.80
2018-08-09T19:17:19.508Z,3.97
2018-08-09T19:21:22.293Z,3.80
2018-08-09T19:25:24.988Z,3.80
2018-08-09T19:29:27.678Z,4.63
2018-08-09T19:33:30.396Z,5.03
2018-08-09T19:37:33.058Z,4.97
2018-08-09T19:41:35.865Z,4.97
2018-08-09T19:45:38.509Z,6.70
2018-08-09T19:49:41.166Z,5.33
2018-08-09T19:53:43.979Z,4.87
2018-08-09T19:57:47.677Z,5.10
2018-08-09T20:01:51.033Z,3.97
2018-08-09T20:05:53.947Z,3.60
2018-08-09T20:09:56.689Z,3.47
2018-08-09T20:13:59.512Z,2.80
2018-08-09T20:18:02.777Z,3.07
2018-08-09T20:22:10.359Z,2.93
2018-08-09T20:26:13.093Z,3.10
2018-08-09T20:30:16.695Z,3.30
2018-08-09T20:34:19.588Z,3.50
2018-08-09T20:38:22.983Z,4.37
2018-08-09T20:42:25.704Z,3.90
2018-08-09T20:46:28.432Z,4.83
2018-08-09T20:50:31.136Z,4.77
2018-08-09T20:54:33.797Z,4.10
2018-08-09T20:58:36.545Z,4.23
2018-08-09T21:02:39.466Z,3.40
2018-08-09T21:06:42.115Z,2.93
2018-08-09T21:10:45.058Z,3.20
2018-08-09T21:14:47.745Z,2.60
2018-08-09T21:18:50.451Z,2.63
2018-08-09T21:22:53.156Z,2.30
2018-08-09T21:26:55.882Z,2.10
2018-08-09T21:30:58.544Z,1.90
2018-08-09T21:35:01.160Z,2.00
2018-08-09T21:39:06.734Z,2.17
2018-08-09T21:43:09.371Z,2.07
2018-08-09T21:47:11.995Z,1.77
2018-08-09T21:51:14.620Z,1.70
2018-08-09T21:55:17.379Z,1.63
2018-08-09T21:59:20.058Z,2.27
2018-08-09T22:03:25.752Z,2.80
2018-08-09T22:07:33.946Z,2.67
2018-08-09T22:11:42.187Z,2.87
2018-08-09T22:15:50.522Z,2.50
2018-08-09T22:19:58.723Z,2.00
2018-08-09T22:24:01.438Z,1.60
2018-08-09T22:28:04.134Z,1.53
2018-08-09T22:32:06.948Z,1.60
2018-08-09T22:36:09.560Z,1.50
2018-08-09T22:40:12.152Z,1.17
2018-08-09T22:44:14.756Z,1.33
2018-08-09T22:48:17.484Z,1.00
2018-08-09T22:52:20.070Z,1.13
2018-08-09T22:56:22.709Z,1.53
2018-08-09T23:00:25.543Z,1.90
2018-08-09T23:04:28.210Z,1.50
2018-08-09T23:08:30.871Z,1.60
2018-08-09T23:12:33.575Z,1.60
2018-08-09T23:16:36.224Z,2.10
2018-08-09T23:20:39.442Z,1.90
2018-08-09T23:24:42.076Z,1.37
2018-08-09T23:28:44.763Z,1.30
2018-08-09T23:32:47.484Z,1.57
2018-08-09T23:36:50.185Z,1.93
2018-08-09T23:40:52.858Z,2.33
2018-08-09T23:44:55.602Z,2.33
2018-08-09T23:48:58.226Z,2.40
2018-08-09T23:53:00.813Z,2.93
2018-08-09T23:57:03.401Z,4.17
